Saint Marys, Ohio
Current Conditions -  °F | °C
As of 10:53 PM on Saturday 20 Dec 2014 (Local Time) from KAXV Reporting Station
Overcast Overcast  
Wind Chill: 32°   Ceiling: 2500
Heat Index: 32°   Visibility: 7mi
Dew Point: 30°   Wind: 3mph
Humidity: 93%   Direction: 220°SW
Pressure: 30.28"   Gusts: NA
Location:  40.54°N, 84.39°W
Report Text: KAXV 210353Z AUTO 22003KT 7SM OVC025 00/M01 A3028 RMK AO2
Loading
Personal Weather Stations






























Interactive Weather Map New forecast layout! Learn more

10-Day Weather Forecast

Advertisements
Track Severe Weather on mobile